Time;durP1;ratioP1;P1;durP2;ratioP2;P2;SDS_P1;SDS_P2;PMS_P1;PMS_P2;Temp;Humidity;BMP_temperature;BMP_pressure;BME280_temperature;BME280_humidity;BME280_pressure;Samples;Min_cycle;Max_cycle;Signal;HPM_P1;HPM_P2
2022/01/05 00:02:06;;;;;;;0.40;0.20;;;7.00;78.70;;;;;;5005609;28;20041;-69
2022/01/05 00:04:32;;;;;;;0.13;0.13;;;6.90;78.60;;;;;;5003211;28;20076;-69
2022/01/05 00:06:57;;;;;;;0.00;0.00;;;6.90;78.70;;;;;;5005891;28;20065;-70
2022/01/05 00:09:23;;;;;;;0.10;0.10;;;6.80;78.70;;;;;;5002117;28;20125;-68
2022/01/05 00:11:49;;;;;;;0.20;0.20;;;6.80;78.90;;;;;;4999964;28;20544;-68
2022/01/05 00:14:14;;;;;;;0.40;0.30;;;6.70;78.90;;;;;;5006020;28;20026;-68
2022/01/05 00:16:40;;;;;;;0.30;0.30;;;6.70;79.10;;;;;;5006667;28;20100;-68
2022/01/05 00:19:06;;;;;;;0.47;0.22;;;6.70;79.30;;;;;;5006504;28;20374;-68
2022/01/05 00:21:32;;;;;;;0.20;0.20;;;6.60;79.30;;;;;;5003894;28;20096;-69
2022/01/05 00:23:57;;;;;;;0.20;0.10;;;6.60;79.30;;;;;;5006206;28;20038;-68
2022/01/05 00:26:25;;;;;;;0.52;0.20;;;6.60;79.20;;;;;;5000957;28;20042;-68
2022/01/05 00:28:51;;;;;;;1.17;0.10;;;6.60;79.20;;;;;;5003972;28;20118;-68
2022/01/05 00:31:16;;;;;;;0.10;0.10;;;6.60;79.20;;;;;;5005439;28;20153;-69
2022/01/05 00:33:42;;;;;;;0.10;0.10;;;6.60;79.10;;;;;;5003113;28;20030;-68
2022/01/05 00:36:08;;;;;;;0.57;0.20;;;6.50;79.20;;;;;;5002805;28;20049;-68
2022/01/05 00:38:34;;;;;;;1.30;0.10;;;6.50;79.10;;;;;;5002683;28;20034;-69
2022/01/05 00:41:00;;;;;;;0.43;0.10;;;6.40;79.10;;;;;;5005301;28;20104;-68
2022/01/05 00:43:26;;;;;;;0.50;0.20;;;6.40;79.20;;;;;;5004660;28;20042;-68
2022/01/05 00:45:52;;;;;;;0.85;0.38;;;6.40;79.40;;;;;;5005524;28;20121;-68
2022/01/05 00:48:17;;;;;;;0.45;0.13;;;6.30;79.40;;;;;;5004749;28;20037;-68
2022/01/05 00:50:43;;;;;;;0.50;0.30;;;6.30;79.50;;;;;;5004568;28;20026;-68
2022/01/05 00:53:09;;;;;;;0.35;0.30;;;6.30;79.50;;;;;;5004147;28;20038;-69
2022/01/05 00:55:34;;;;;;;1.65;0.20;;;6.30;79.60;;;;;;5004680;28;20056;-68
2022/01/05 00:58:00;;;;;;;0.52;0.20;;;6.30;79.70;;;;;;5004229;28;20034;-69
2022/01/05 01:00:25;;;;;;;0.57;0.30;;;6.30;79.90;;;;;;5004222;28;20088;-68
2022/01/05 01:02:51;;;;;;;0.30;0.30;;;6.20;79.90;;;;;;4998078;28;20791;-67
2022/01/05 01:05:17;;;;;;;0.32;0.15;;;6.20;80.00;;;;;;4999215;28;20038;-69
2022/01/05 01:07:44;;;;;;;0.10;0.10;;;6.20;79.90;;;;;;5003435;28;20117;-66
2022/01/05 01:10:10;;;;;;;0.20;0.20;;;6.10;79.90;;;;;;5001844;28;20072;-69
2022/01/05 01:12:36;;;;;;;0.20;0.20;;;6.10;79.90;;;;;;4997394;28;20161;-68
2022/01/05 01:15:07;;;;;;;0.13;0.10;;;6.10;80.00;;;;;;5000873;28;20113;-68
2022/01/05 01:17:33;;;;;;;0.43;0.13;;;6.00;80.20;;;;;;5005638;28;20030;-68
2022/01/05 01:19:58;;;;;;;0.35;0.10;;;6.00;80.20;;;;;;5004698;28;20084;-69
2022/01/05 01:22:26;;;;;;;0.10;0.10;;;6.00;80.30;;;;;;5006200;28;20042;-68
2022/01/05 01:24:52;;;;;;;0.20;0.10;;;6.00;80.30;;;;;;5006955;28;20033;-68
2022/01/05 01:27:18;;;;;;;0.05;0.03;;;6.00;80.40;;;;;;5007298;28;20595;-68
2022/01/05 01:29:43;;;;;;;0.00;0.00;;;6.00;80.50;;;;;;5006252;28;20116;-69
2022/01/05 01:32:09;;;;;;;1.02;0.10;;;5.90;80.60;;;;;;5000565;28;20133;-69
2022/01/05 01:34:35;;;;;;;0.10;0.10;;;5.90;80.70;;;;;;5002875;28;20073;-69
2022/01/05 01:37:00;;;;;;;0.00;0.00;;;5.90;80.70;;;;;;5005521;28;20036;-68
2022/01/05 01:39:26;;;;;;;0.10;0.10;;;5.80;80.80;;;;;;5002215;28;20065;-68
2022/01/05 01:41:52;;;;;;;0.10;0.10;;;5.80;80.90;;;;;;5002308;28;20057;-68
2022/01/05 01:44:17;;;;;;;0.00;0.00;;;5.80;81.00;;;;;;5002941;28;20038;-68
2022/01/05 01:46:43;;;;;;;0.10;0.10;;;5.80;81.10;;;;;;5003067;28;20033;-69
2022/01/05 01:49:09;;;;;;;0.95;0.10;;;5.80;81.30;;;;;;5015707;28;20753;-68
2022/01/05 01:51:34;;;;;;;0.08;0.08;;;5.80;81.50;;;;;;4996934;28;20084;-69
2022/01/05 01:54:01;;;;;;;0.10;0.10;;;5.80;81.60;;;;;;5004553;28;20034;-67
2022/01/05 01:56:29;;;;;;;0.10;0.10;;;5.80;81.40;;;;;;4996963;28;20096;-69
2022/01/05 01:58:54;;;;;;;0.20;0.20;;;5.80;82.20;;;;;;4999576;28;20045;-69
2022/01/05 02:01:20;;;;;;;0.20;0.20;;;5.80;81.40;;;;;;5003768;28;20375;-68
2022/01/05 02:03:46;;;;;;;0.15;0.10;;;5.80;81.40;;;;;;5004741;28;20026;-68
2022/01/05 02:06:11;;;;;;;0.10;0.10;;;5.70;81.40;;;;;;5003952;28;20042;-69
2022/01/05 02:08:37;;;;;;;0.17;0.17;;;5.70;81.50;;;;;;5005328;28;20037;-69
2022/01/05 02:11:07;;;;;;;0.30;0.10;;;5.70;81.80;;;;;;5000584;28;20420;-68
2022/01/05 02:13:32;;;;;;;0.10;0.10;;;5.70;81.50;;;;;;5003040;28;20037;-68
2022/01/05 02:15:58;;;;;;;1.45;0.10;;;5.70;81.60;;;;;;5007045;28;20034;-68
2022/01/05 02:20:57;;;;;;;1.63;0.17;;;5.60;81.30;;;;;;5006607;28;20038;-69
2022/01/05 02:23:23;;;;;;;0.40;0.20;;;5.60;81.60;;;;;;5003104;28;20066;-68
2022/01/05 02:25:48;;;;;;;0.13;0.13;;;5.50;81.60;;;;;;5012037;28;20061;-68
2022/01/05 02:28:14;;;;;;;0.10;0.10;;;5.50;82.00;;;;;;4999927;28;20085;-69
2022/01/05 02:30:43;;;;;;;0.22;0.20;;;5.50;81.90;;;;;;5002268;28;20663;-68
2022/01/05 02:33:09;;;;;;;0.40;0.10;;;5.50;82.10;;;;;;5005515;28;20042;-68
2022/01/05 02:35:34;;;;;;;0.10;0.10;;;5.50;82.00;;;;;;5005569;28;20026;-68
2022/01/05 02:38:00;;;;;;;0.38;0.17;;;5.50;82.00;;;;;;5004299;28;20085;-68
2022/01/05 02:40:26;;;;;;;0.10;0.10;;;5.50;82.10;;;;;;4998903;28;20034;-68
2022/01/05 02:42:54;;;;;;;0.10;0.10;;;5.50;82.10;;;;;;5005553;28;20030;-68
2022/01/05 02:45:20;;;;;;;0.10;0.10;;;5.40;82.10;;;;;;5000645;28;20034;-68
2022/01/05 02:47:45;;;;;;;0.17;0.17;;;5.40;81.90;;;;;;5006925;28;20026;-68
2022/01/05 02:50:12;;;;;;;0.10;0.10;;;5.40;82.30;;;;;;5001525;28;20603;-68
2022/01/05 02:52:38;;;;;;;0.00;0.00;;;5.40;82.10;;;;;;5003287;28;20121;-68
2022/01/05 02:55:05;;;;;;;0.20;0.10;;;5.40;82.00;;;;;;5005576;28;20104;-67
2022/01/05 02:57:31;;;;;;;0.03;0.03;;;5.40;82.00;;;;;;5005669;28;20596;-68
2022/01/05 02:59:57;;;;;;;0.52;0.10;;;5.30;81.80;;;;;;5000252;28;20124;-68
2022/01/05 03:02:23;;;;;;;0.10;0.10;;;5.40;82.00;;;;;;5003650;28;20162;-68
2022/01/05 03:04:49;;;;;;;0.00;0.00;;;5.30;82.00;;;;;;5002763;28;20124;-68
2022/01/05 03:07:16;;;;;;;0.00;0.00;;;5.20;81.80;;;;;;5000447;28;20144;-68
2022/01/05 03:09:42;;;;;;;0.00;0.00;;;5.20;82.00;;;;;;5004727;28;20084;-68
2022/01/05 03:12:08;;;;;;;0.00;0.00;;;5.20;82.00;;;;;;5000148;28;20120;-68
2022/01/05 03:14:34;;;;;;;0.00;0.00;;;5.20;82.00;;;;;;5001008;28;20053;-68
2022/01/05 03:17:00;;;;;;;0.00;0.00;;;5.10;82.00;;;;;;5001831;28;20042;-68
2022/01/05 03:19:25;;;;;;;0.00;0.00;;;5.10;82.00;;;;;;5004002;28;20081;-68
2022/01/05 03:21:51;;;;;;;0.25;0.00;;;5.10;82.20;;;;;;5001196;28;20697;-68
2022/01/05 03:24:17;;;;;;;0.00;0.00;;;5.10;82.90;;;;;;5003512;28;20038;-68
2022/01/05 03:26:43;;;;;;;0.10;0.10;;;5.00;82.00;;;;;;5000894;28;20029;-69
2022/01/05 03:29:08;;;;;;;0.20;0.00;;;5.00;82.10;;;;;;5003199;28;20250;-69
2022/01/05 03:31:34;;;;;;;0.00;0.00;;;5.00;82.30;;;;;;5005928;28;20519;-68
2022/01/05 03:34:00;;;;;;;0.00;0.00;;;5.00;82.10;;;;;;5001151;28;20049;-68
2022/01/05 03:36:25;;;;;;;0.10;0.10;;;4.90;82.10;;;;;;5002300;28;20037;-68
2022/01/05 03:38:51;;;;;;;0.10;0.10;;;4.90;82.30;;;;;;5005657;28;20516;-68
2022/01/05 03:41:17;;;;;;;0.00;0.00;;;4.90;82.50;;;;;;5006008;28;20038;-68
2022/01/05 03:43:43;;;;;;;0.10;0.10;;;4.90;82.50;;;;;;5005866;28;20042;-68
2022/01/05 03:46:08;;;;;;;0.10;0.10;;;4.90;82.50;;;;;;5005997;28;20045;-68
2022/01/05 03:48:34;;;;;;;0.08;0.08;;;4.90;82.40;;;;;;5004842;28;20034;-68
2022/01/05 03:50:59;;;;;;;0.10;0.10;;;4.90;82.30;;;;;;5006013;28;20417;-69
2022/01/05 03:53:25;;;;;;;0.17;0.10;;;4.90;82.50;;;;;;5004715;28;20045;-68
2022/01/05 03:55:51;;;;;;;0.10;0.10;;;4.90;82.60;;;;;;5003053;28;20034;-68
2022/01/05 03:58:17;;;;;;;0.10;0.10;;;4.90;82.70;;;;;;5002144;28;20030;-68
2022/01/05 04:00:50;;;;;;;0.13;0.10;;;4.90;82.70;;;;;;5003224;28;20533;-68
2022/01/05 04:03:16;;;;;;;0.10;0.10;;;4.90;83.00;;;;;;5003204;28;20040;-69
2022/01/05 04:05:42;;;;;;;0.10;0.10;;;4.80;82.70;;;;;;5004311;28;20141;-67
2022/01/05 04:08:08;;;;;;;0.10;0.10;;;4.80;82.80;;;;;;4999069;28;20026;-67
2022/01/05 04:10:34;;;;;;;0.10;0.10;;;4.80;83.00;;;;;;5003787;28;20033;-68
2022/01/05 04:12:59;;;;;;;0.20;0.20;;;4.80;82.90;;;;;;5001076;28;20030;-68
2022/01/05 04:15:25;;;;;;;0.10;0.10;;;4.80;82.90;;;;;;5002558;28;20048;-68
2022/01/05 04:17:51;;;;;;;0.10;0.10;;;4.80;82.60;;;;;;5001072;28;20028;-68
2022/01/05 04:20:17;;;;;;;0.10;0.10;;;4.90;82.70;;;;;;5002283;28;20405;-67
2022/01/05 04:22:43;;;;;;;0.10;0.10;;;4.80;82.60;;;;;;5003028;28;20034;-69
2022/01/05 04:25:10;;;;;;;0.17;0.08;;;4.80;82.50;;;;;;5002593;28;20045;-68
2022/01/05 04:27:35;;;;;;;0.10;0.10;;;4.80;82.70;;;;;;5002099;28;20628;-68
2022/01/05 04:30:01;;;;;;;0.10;0.10;;;4.70;82.60;;;;;;5002783;28;20125;-68
2022/01/05 04:32:27;;;;;;;0.10;0.10;;;4.70;82.60;;;;;;5002721;28;20038;-68
2022/01/05 04:34:53;;;;;;;0.20;0.10;;;4.80;82.90;;;;;;5002408;28;20401;-68
2022/01/05 04:37:19;;;;;;;0.10;0.10;;;4.70;83.00;;;;;;5002971;28;20505;-67
2022/01/05 04:39:45;;;;;;;0.15;0.15;;;4.70;83.00;;;;;;5003938;28;20455;-67
2022/01/05 04:42:11;;;;;;;0.10;0.10;;;4.70;83.10;;;;;;5000926;28;20041;-68
2022/01/05 04:44:37;;;;;;;0.10;0.10;;;4.80;83.10;;;;;;5003222;28;20062;-68
2022/01/05 04:47:03;;;;;;;65.60;26.85;;;4.80;83.00;;;;;;5002975;28;20409;-68
2022/01/05 04:49:28;;;;;;;4.28;2.72;;;4.80;83.00;;;;;;5002280;28;20031;-68
2022/01/05 04:51:54;;;;;;;9.75;6.03;;;4.80;83.00;;;;;;5006030;28;20038;-68
2022/01/05 04:54:19;;;;;;;4.25;3.13;;;4.80;83.00;;;;;;5004647;28;20623;-68
2022/01/05 04:56:45;;;;;;;3.72;2.55;;;4.80;83.00;;;;;;5004206;28;20046;-68
2022/01/05 04:59:11;;;;;;;4.82;3.45;;;4.90;83.10;;;;;;5009111;28;20044;-68
2022/01/05 05:01:37;;;;;;;2.33;1.92;;;4.80;83.00;;;;;;4997214;28;20042;-68
2022/01/05 05:04:02;;;;;;;1.02;0.93;;;4.90;83.00;;;;;;5000185;28;20060;-68
2022/01/05 05:06:28;;;;;;;0.20;0.20;;;4.90;82.90;;;;;;5001432;28;20521;-68
2022/01/05 05:08:54;;;;;;;0.35;0.32;;;4.90;82.80;;;;;;5005769;28;20029;-68
2022/01/05 05:11:19;;;;;;;0.65;0.60;;;4.90;82.90;;;;;;5004529;28;21007;-68
2022/01/05 05:13:45;;;;;;;3.33;2.40;;;4.90;82.90;;;;;;5006741;28;20493;-68
2022/01/05 05:16:11;;;;;;;14.23;6.88;;;4.90;83.00;;;;;;5006783;28;20050;-68
2022/01/05 05:18:37;;;;;;;12.25;6.82;;;4.90;83.00;;;;;;5006701;28;20042;-68
2022/01/05 05:21:03;;;;;;;2.78;2.20;;;4.90;82.90;;;;;;5005954;28;20126;-69
2022/01/05 05:23:29;;;;;;;1.55;1.45;;;5.00;82.80;;;;;;5007013;28;20069;-68
2022/01/05 05:25:55;;;;;;;0.80;0.60;;;5.00;82.80;;;;;;5007960;28;20064;-67
2022/01/05 05:28:22;;;;;;;0.40;0.40;;;4.90;83.50;;;;;;5006996;28;20994;-68
2022/01/05 05:30:48;;;;;;;2.40;1.85;;;4.90;82.80;;;;;;5004354;28;20042;-68
2022/01/05 05:33:14;;;;;;;2.53;2.33;;;4.90;82.80;;;;;;5005512;28;20108;-68
2022/01/05 05:35:41;;;;;;;1.90;1.80;;;5.00;82.90;;;;;;5005780;28;20061;-69
2022/01/05 05:38:08;;;;;;;1.50;1.40;;;5.00;82.80;;;;;;5007644;28;20026;-68
2022/01/05 05:40:33;;;;;;;0.10;0.10;;;4.90;82.90;;;;;;5002792;28;20371;-68
2022/01/05 05:42:59;;;;;;;3.03;2.63;;;5.00;82.90;;;;;;5005093;28;20045;-68
2022/01/05 05:45:25;;;;;;;1.67;1.58;;;5.00;83.00;;;;;;5002864;28;20033;-64
2022/01/05 05:47:51;;;;;;;1.45;1.35;;;5.00;83.00;;;;;;5007745;28;20529;-68
2022/01/05 05:50:17;;;;;;;2.20;2.10;;;5.00;83.00;;;;;;5003307;28;20154;-69
2022/01/05 05:52:42;;;;;;;2.00;1.13;;;5.00;83.00;;;;;;5005675;28;20034;-68
2022/01/05 05:55:08;;;;;;;0.50;0.50;;;5.10;83.20;;;;;;5008706;28;20026;-68
2022/01/05 05:57:34;;;;;;;0.60;0.55;;;5.00;83.20;;;;;;5004210;28;20037;-68
2022/01/05 05:59:59;;;;;;;1.30;1.20;;;5.00;83.10;;;;;;5006754;28;20037;-68
2022/01/05 06:02:25;;;;;;;0.80;0.80;;;5.10;83.20;;;;;;5003219;28;20104;-67
2022/01/05 06:04:51;;;;;;;1.15;1.05;;;5.10;83.30;;;;;;5004530;28;20040;-68
2022/01/05 06:07:16;;;;;;;0.70;0.70;;;5.10;83.30;;;;;;5004476;28;20034;-67
2022/01/05 06:09:42;;;;;;;1.00;0.28;;;5.20;83.20;;;;;;5005065;28;20041;-68
2022/01/05 06:12:08;;;;;;;0.10;0.10;;;5.20;83.20;;;;;;4998244;28;20034;-68
2022/01/05 06:14:34;;;;;;;0.10;0.10;;;5.20;83.20;;;;;;5003877;28;20029;-69
2022/01/05 06:17:00;;;;;;;0.10;0.10;;;5.20;83.20;;;;;;5006066;28;20734;-68
2022/01/05 06:19:25;;;;;;;0.10;0.10;;;5.30;83.10;;;;;;5007128;28;20037;-68
2022/01/05 06:21:51;;;;;;;0.20;0.20;;;5.30;83.00;;;;;;5003804;28;20030;-68
2022/01/05 06:24:17;;;;;;;0.60;0.60;;;5.30;83.10;;;;;;5005514;28;20034;-69
2022/01/05 06:26:44;;;;;;;0.50;0.50;;;5.30;83.00;;;;;;5003440;28;20025;-69
2022/01/05 06:29:13;;;;;;;0.63;0.43;;;5.30;83.00;;;;;;5005586;28;20810;-68
2022/01/05 06:31:40;;;;;;;0.90;0.90;;;5.40;83.00;;;;;;5001158;28;20049;-68
2022/01/05 06:34:05;;;;;;;0.40;0.40;;;5.40;83.70;;;;;;5008480;28;20041;-68
2022/01/05 06:36:31;;;;;;;0.40;0.40;;;5.40;82.80;;;;;;5006500;28;20026;-68
2022/01/05 06:38:57;;;;;;;0.32;0.32;;;5.40;82.80;;;;;;5007298;28;20033;-68
2022/01/05 06:41:22;;;;;;;0.30;0.30;;;5.40;82.80;;;;;;5000258;28;20038;-68
2022/01/05 06:43:48;;;;;;;0.50;0.50;;;5.40;82.80;;;;;;5001290;28;20392;-68
2022/01/05 06:46:13;;;;;;;0.40;0.40;;;5.50;82.80;;;;;;5002464;28;20030;-68
2022/01/05 06:48:39;;;;;;;0.40;0.40;;;5.40;82.60;;;;;;5006730;28;20029;-68
2022/01/05 06:51:05;;;;;;;0.40;0.40;;;5.40;82.50;;;;;;5006481;28;20030;-69
2022/01/05 06:53:30;;;;;;;0.50;0.50;;;5.40;82.60;;;;;;5006191;28;20040;-68
2022/01/05 06:55:56;;;;;;;0.50;0.43;;;5.40;82.60;;;;;;5005939;28;20049;-68
2022/01/05 06:58:21;;;;;;;0.50;0.50;;;5.40;82.50;;;;;;5004217;28;20034;-68
2022/01/05 07:00:47;;;;;;;0.47;0.40;;;5.40;82.50;;;;;;5005870;28;20040;-68
2022/01/05 07:03:13;;;;;;;0.57;0.57;;;5.40;82.60;;;;;;5005933;28;20026;-68
2022/01/05 07:05:38;;;;;;;0.80;0.55;;;5.40;83.50;;;;;;5006053;28;20041;-68
2022/01/05 07:08:05;;;;;;;0.93;0.75;;;5.40;82.80;;;;;;5007225;28;20049;-68
2022/01/05 07:10:31;;;;;;;0.60;0.60;;;5.30;82.60;;;;;;5003441;28;20064;-69
2022/01/05 07:12:57;;;;;;;0.45;0.45;;;5.40;82.80;;;;;;4999833;28;20058;-68
2022/01/05 07:15:23;;;;;;;0.50;0.50;;;5.30;82.80;;;;;;5003784;28;20022;-68
2022/01/05 07:17:49;;;;;;;0.80;0.60;;;5.20;82.70;;;;;;5006705;28;20049;-69
2022/01/05 07:20:16;;;;;;;0.30;0.30;;;5.20;82.80;;;;;;5003733;28;20550;-68
2022/01/05 07:22:42;;;;;;;0.75;0.70;;;5.20;82.80;;;;;;5002485;28;20033;-68
2022/01/05 07:25:08;;;;;;;0.80;0.70;;;5.20;82.90;;;;;;4997511;28;20117;-67
2022/01/05 07:27:34;;;;;;;1.65;0.95;;;5.20;82.90;;;;;;4996598;28;20042;-68
2022/01/05 07:29:59;;;;;;;1.23;0.68;;;5.20;83.00;;;;;;5001301;28;20038;-69
2022/01/05 07:32:26;;;;;;;1.65;1.05;;;5.20;83.10;;;;;;4995895;28;20054;-68
2022/01/05 07:34:51;;;;;;;1.90;1.40;;;5.20;83.20;;;;;;4994494;28;20036;-67
2022/01/05 07:37:17;;;;;;;1.00;0.80;;;5.10;83.00;;;;;;4994846;28;20414;-68
2022/01/05 07:39:42;;;;;;;1.08;0.50;;;5.10;83.00;;;;;;4997118;28;20508;-68
2022/01/05 07:42:08;;;;;;;0.40;0.40;;;5.10;83.20;;;;;;4997087;28;20037;-68
2022/01/05 07:44:34;;;;;;;0.60;0.60;;;5.10;83.20;;;;;;4989287;28;20034;-68
2022/01/05 07:47:00;;;;;;;1.95;0.60;;;5.10;83.30;;;;;;4990317;28;20042;-68
2022/01/05 07:49:25;;;;;;;0.60;0.60;;;5.10;83.20;;;;;;4990199;28;20505;-68
2022/01/05 07:51:51;;;;;;;0.43;0.43;;;5.10;82.90;;;;;;4988657;28;20034;-69
2022/01/05 07:54:16;;;;;;;0.30;0.30;;;5.10;82.90;;;;;;4995553;28;20621;-68
2022/01/05 07:56:42;;;;;;;0.30;0.30;;;5.10;82.30;;;;;;4998590;28;20042;-69
2022/01/05 07:59:07;;;;;;;0.30;0.30;;;5.00;81.60;;;;;;4996704;28;20026;-68
2022/01/05 08:01:36;;;;;;;0.40;0.30;;;4.90;81.00;;;;;;4993933;28;20042;-68
2022/01/05 08:04:01;;;;;;;0.43;0.40;;;4.90;80.60;;;;;;4996737;28;20034;-69
2022/01/05 08:06:27;;;;;;;0.77;0.55;;;4.90;80.60;;;;;;4995237;28;20045;-69
2022/01/05 08:08:56;;;;;;;0.73;0.50;;;4.70;80.70;;;;;;5000311;28;20049;-68
2022/01/05 08:11:21;;;;;;;0.57;0.43;;;4.70;80.80;;;;;;4997102;28;20034;-68
2022/01/05 08:13:47;;;;;;;0.60;0.40;;;4.50;80.80;;;;;;4997421;28;20064;-68
2022/01/05 08:16:13;;;;;;;0.65;0.50;;;4.50;81.10;;;;;;5000316;28;20405;-68
2022/01/05 08:18:39;;;;;;;0.45;0.35;;;4.50;81.30;;;;;;4997021;28;20030;-68
2022/01/05 08:21:05;;;;;;;0.90;0.35;;;4.40;81.40;;;;;;4994728;28;20042;-68
2022/01/05 08:23:31;;;;;;;1.58;0.50;;;4.30;81.50;;;;;;4994772;28;20084;-68
2022/01/05 08:25:57;;;;;;;1.60;0.47;;;4.30;81.70;;;;;;4991000;28;20042;-69
2022/01/05 08:28:23;;;;;;;0.50;0.47;;;4.20;81.70;;;;;;5002951;28;20049;-68
2022/01/05 08:30:48;;;;;;;1.75;0.60;;;4.20;82.80;;;;;;5000183;28;20038;-69
2022/01/05 08:33:15;;;;;;;0.85;0.50;;;4.20;82.10;;;;;;5001795;28;20129;-68
2022/01/05 08:35:42;;;;;;;0.88;0.68;;;4.20;82.30;;;;;;4998595;28;20022;-66
2022/01/05 08:38:08;;;;;;;1.33;0.88;;;4.20;82.80;;;;;;5000491;28;20034;-68
2022/01/05 08:40:36;;;;;;;1.20;1.10;;;4.20;82.90;;;;;;5000501;28;20038;-68
2022/01/05 08:43:04;;;;;;;1.00;1.00;;;4.20;83.20;;;;;;4999673;28;20053;-69
2022/01/05 08:45:30;;;;;;;1.67;1.30;;;4.20;83.00;;;;;;4999586;28;20031;-68
2022/01/05 08:47:58;;;;;;;1.55;1.38;;;4.20;82.80;;;;;;5002296;28;20551;-69
2022/01/05 08:50:26;;;;;;;1.20;1.10;;;4.30;82.50;;;;;;4999814;28;20061;-68
2022/01/05 08:52:53;;;;;;;2.28;1.95;;;4.30;82.60;;;;;;5000178;28;20501;-68
2022/01/05 08:55:21;;;;;;;1.55;1.45;;;4.40;82.30;;;;;;5001939;28;20038;-68
2022/01/05 08:57:48;;;;;;;2.45;1.20;;;4.40;82.00;;;;;;5001941;28;20038;-67
2022/01/05 09:00:14;;;;;;;1.92;1.60;;;4.40;82.00;;;;;;5000124;28;20034;-68
2022/01/05 09:02:43;;;;;;;0.98;0.88;;;4.40;82.00;;;;;;4995357;28;20124;-69
2022/01/05 09:05:09;;;;;;;0.98;0.80;;;4.40;82.10;;;;;;5005377;28;20201;-69
2022/01/05 09:07:35;;;;;;;1.27;0.75;;;4.40;82.00;;;;;;5005143;28;20030;-67
2022/01/05 09:10:03;;;;;;;0.60;0.60;;;4.30;82.00;;;;;;4990540;28;20048;-66
2022/01/05 09:12:29;;;;;;;0.82;0.80;;;4.30;82.10;;;;;;4996765;28;20030;-68
2022/01/05 09:15:00;;;;;;;0.85;0.60;;;4.30;82.40;;;;;;5000800;28;20469;-68
2022/01/05 09:17:26;;;;;;;0.70;0.70;;;4.20;82.60;;;;;;5000794;28;20034;-69
2022/01/05 09:19:52;;;;;;;0.40;0.40;;;4.20;82.80;;;;;;5001734;28;20088;-69
2022/01/05 09:22:18;;;;;;;0.50;0.47;;;4.10;82.90;;;;;;5001754;28;20046;-68
2022/01/05 09:24:44;;;;;;;0.80;0.40;;;4.10;82.60;;;;;;4998167;28;20086;-68
2022/01/05 09:27:13;;;;;;;0.50;0.50;;;4.10;82.70;;;;;;4999920;28;22178;-69
2022/01/05 09:29:40;;;;;;;1.77;0.70;;;4.00;82.90;;;;;;5003392;28;20453;-67
2022/01/05 09:32:09;;;;;;;0.70;0.68;;;3.90;83.00;;;;;;5001557;28;20069;-68
2022/01/05 09:34:36;;;;;;;0.65;0.60;;;3.90;83.20;;;;;;5001706;28;20402;-69
2022/01/05 09:37:15;;;;;;;0.82;0.50;;;3.90;83.20;;;;;;5000839;28;20038;-68
2022/01/05 09:42:24;;;;;;;1.00;0.40;;;3.80;82.80;;;;;;5005943;28;20160;-68
2022/01/05 09:44:52;;;;;;;1.58;0.35;;;3.80;81.90;;;;;;5002793;28;20037;-68
2022/01/05 09:47:44;;;;;;;0.82;0.50;;;3.80;81.30;;;;;;5005767;28;20030;-68
2022/01/05 09:50:12;;;;;;;1.55;0.60;;;3.70;81.10;;;;;;4999083;28;20592;-68
2022/01/05 09:52:41;;;;;;;2.28;0.63;;;3.70;81.00;;;;;;5006417;28;20398;-69
2022/01/05 09:55:08;;;;;;;1.98;0.60;;;3.70;80.20;;;;;;5006409;28;20050;-68
2022/01/05 09:57:34;;;;;;;1.10;0.57;;;3.70;79.60;;;;;;5003243;28;20040;-69
2022/01/05 10:00:00;;;;;;;1.38;0.70;;;3.70;79.30;;;;;;5002890;28;20041;-69
2022/01/05 10:02:28;;;;;;;0.73;0.50;;;3.70;79.00;;;;;;5001849;28;20121;-69
2022/01/05 10:04:54;;;;;;;2.45;0.80;;;3.70;78.60;;;;;;5003511;28;20038;-68
2022/01/05 10:07:20;;;;;;;3.95;1.20;;;3.70;77.00;;;;;;5003091;28;20040;-68
2022/01/05 10:09:46;;;;;;;2.50;0.95;;;3.70;76.30;;;;;;5002962;28;20072;-68
2022/01/05 10:12:13;;;;;;;1.88;0.73;;;3.70;76.60;;;;;;5005060;28;20038;-69
2022/01/05 10:14:44;;;;;;;2.33;1.20;;;3.70;76.40;;;;;;5003726;28;20034;-68
2022/01/05 10:17:10;;;;;;;2.83;0.70;;;3.70;76.20;;;;;;5004329;28;20046;-69
2022/01/05 10:19:37;;;;;;;4.15;0.73;;;3.70;76.00;;;;;;5005471;28;20120;-68
2022/01/05 10:22:04;;;;;;;3.70;1.10;;;3.70;75.90;;;;;;5005821;28;20056;-69
2022/01/05 10:24:48;;;;;;;2.88;1.00;;;3.70;74.60;;;;;;5002491;28;20128;-68
2022/01/05 10:27:24;;;;;;;2.22;0.82;;;3.80;73.10;;;;;;5004114;28;20022;-68
2022/01/05 10:30:04;;;;;;;3.03;0.93;;;3.70;72.90;;;;;;5002776;28;20037;-68
2022/01/05 10:32:31;;;;;;;3.28;1.27;;;3.70;73.30;;;;;;4995555;28;20030;-68
2022/01/05 10:35:00;;;;;;;3.15;1.00;;;3.70;74.20;;;;;;5002968;28;20142;-67
2022/01/05 10:37:26;;;;;;;2.35;1.00;;;3.70;73.90;;;;;;5000807;28;20026;-68
2022/01/05 10:40:06;;;;;;;1.60;0.90;;;3.60;74.30;;;;;;5001548;28;20040;-68
2022/01/05 10:42:33;;;;;;;4.40;0.93;;;3.70;74.20;;;;;;4999526;28;20037;-68
2022/01/05 10:44:59;;;;;;;2.42;0.82;;;3.70;75.10;;;;;;4999295;28;20418;-68
2022/01/05 10:47:25;;;;;;;2.13;0.93;;;3.70;74.80;;;;;;4996019;28;20532;-68
2022/01/05 10:49:51;;;;;;;2.58;1.08;;;3.70;74.30;;;;;;4996984;28;20517;-68
2022/01/05 10:52:22;;;;;;;3.47;1.13;;;3.70;73.80;;;;;;4998478;28;20030;-68
2022/01/05 10:54:49;;;;;;;3.30;1.20;;;3.70;73.90;;;;;;4999999;28;20092;-68
2022/01/05 10:57:16;;;;;;;3.20;1.20;;;3.80;72.70;;;;;;4995522;28;20489;-69
2022/01/05 10:59:47;;;;;;;3.25;1.38;;;3.80;72.60;;;;;;5006079;28;20335;-68
2022/01/05 11:02:22;;;;;;;4.50;1.40;;;3.80;70.80;;;;;;5005501;28;20045;-68
2022/01/05 11:04:49;;;;;;;;;;;3.90;70.80;;;;;;5003930;28;20038;-68
2022/01/05 11:07:26;;;;;;;2.92;1.45;;;3.80;69.30;;;;;;5004408;28;19920;-67
2022/01/05 11:10:05;;;;;;;2.65;1.40;;;3.80;69.30;;;;;;5004209;28;20238;-68
2022/01/05 11:12:33;;;;;;;3.40;1.50;;;3.90;70.60;;;;;;5003034;28;20038;-68
2022/01/05 11:15:20;;;;;;;4.22;2.13;;;3.90;71.70;;;;;;5006087;28;20030;-69
2022/01/05 11:18:11;;;;;;;4.05;1.75;;;4.00;68.20;;;;;;5008355;28;20056;-68
2022/01/05 11:20:39;;;;;;;6.03;1.70;;;4.00;68.90;;;;;;5003620;28;20390;-69
2022/01/05 11:23:05;;;;;;;5.03;1.48;;;4.00;69.90;;;;;;5018593;28;20494;-68
2022/01/05 11:25:33;;;;;;;3.25;1.23;;;4.00;69.60;;;;;;5003512;28;20169;-68
2022/01/05 11:27:59;;;;;;;3.33;1.30;;;4.10;69.40;;;;;;5005227;28;20030;-68
2022/01/05 11:30:24;;;;;;;5.25;1.60;;;4.10;69.90;;;;;;5003702;28;20388;-70
2022/01/05 11:32:50;;;;;;;4.63;1.55;;;4.10;70.00;;;;;;5007186;28;20330;-68
2022/01/05 11:35:16;;;;;;;5.22;1.92;;;4.10;69.60;;;;;;5006709;28;20040;-68
2022/01/05 11:37:42;;;;;;;4.57;1.40;;;4.10;69.60;;;;;;5005520;28;20083;-68
2022/01/05 11:40:08;;;;;;;4.85;1.40;;;4.10;67.00;;;;;;5006320;28;20061;-68
2022/01/05 11:42:39;;;;;;;4.97;1.27;;;4.10;66.60;;;;;;5004223;28;20037;-69
2022/01/05 11:45:07;;;;;;;4.28;1.30;;;4.10;66.80;;;;;;5003763;28;20041;-68
2022/01/05 11:47:36;;;;;;;4.68;1.48;;;4.10;68.00;;;;;;5005365;28;20037;-68
2022/01/05 11:50:14;;;;;;;5.32;1.38;;;4.10;67.30;;;;;;5004525;28;20030;-67
2022/01/05 11:52:59;;;;;;;5.40;1.20;;;4.00;66.40;;;;;;5005584;28;20030;-68
2022/01/05 11:55:30;;;;;;;2.33;1.00;;;4.00;65.10;;;;;;5006020;28;20130;-69
2022/01/05 11:58:16;;;;;;;4.57;1.35;;;4.00;66.90;;;;;;5005393;28;20109;-69
2022/01/05 12:00:43;;;;;;;2.65;1.13;;;4.00;66.70;;;;;;5003885;28;20049;-68
2022/01/05 12:03:08;;;;;;;2.45;1.48;;;4.00;67.60;;;;;;5005031;28;20053;-69
2022/01/05 12:06:02;;;;;;;3.10;1.15;;;3.90;67.50;;;;;;5001178;28;20070;-68
2022/01/05 12:08:46;;;;;;;6.10;1.70;;;4.00;67.20;;;;;;5002979;28;20030;-69
2022/01/05 12:11:31;;;;;;;4.35;1.60;;;4.00;67.30;;;;;;5003172;28;20141;-68
2022/01/05 12:14:26;;;;;;;2.25;1.17;;;4.00;64.50;;;;;;5022338;28;20041;-69
2022/01/05 12:17:05;;;;;;;2.95;1.10;;;4.00;65.80;;;;;;4994629;28;20046;-67
2022/01/05 12:19:35;;;;;;;3.67;1.35;;;4.10;66.00;;;;;;5004100;28;20034;-67
2022/01/05 12:22:03;;;;;;;4.53;1.13;;;4.10;65.40;;;;;;5003190;28;20050;-68
2022/01/05 12:24:57;;;;;;;4.60;1.00;;;4.20;66.00;;;;;;5004270;28;20036;-67
2022/01/05 12:27:36;;;;;;;2.08;0.80;;;4.20;63.00;;;;;;5003147;28;20412;-68
2022/01/05 12:30:21;;;;;;;6.78;1.27;;;4.20;63.60;;;;;;5005053;28;20041;-68
2022/01/05 12:32:59;;;;;;;4.18;1.10;;;4.20;62.50;;;;;;5003834;28;20038;-68
2022/01/05 12:35:27;;;;;;;6.68;1.77;;;4.20;64.40;;;;;;5003977;28;20041;-69
2022/01/05 12:37:58;;;;;;;6.90;1.63;;;4.20;64.40;;;;;;5004866;28;20124;-69
2022/01/05 12:40:35;;;;;;;6.25;1.73;;;4.30;64.60;;;;;;5004228;28;20041;-67
2022/01/05 12:43:10;;;;;;;4.18;1.30;;;4.30;64.60;;;;;;5003112;28;20084;-68
2022/01/05 12:45:52;;;;;;;5.10;1.90;;;4.30;65.40;;;;;;5005881;28;20571;-68
2022/01/05 12:48:35;;;;;;;4.72;1.40;;;4.30;65.30;;;;;;5002591;28;20038;-69
2022/01/05 12:51:31;;;;;;;8.05;1.40;;;4.40;64.60;;;;;;5002224;28;20038;-68
2022/01/05 12:54:02;;;;;;;8.32;1.40;;;4.40;63.90;;;;;;5005537;28;20042;-68
2022/01/05 12:56:30;;;;;;;5.18;1.65;;;4.40;64.10;;;;;;5000518;28;20030;-68
2022/01/05 12:58:57;;;;;;;4.68;1.23;;;4.40;63.90;;;;;;5004727;28;20030;-68
2022/01/05 13:01:26;;;;;;;6.68;1.45;;;4.40;64.00;;;;;;5001709;28;20038;-68
2022/01/05 13:03:53;;;;;;;4.13;1.35;;;4.40;65.00;;;;;;5002684;28;20030;-69
2022/01/05 13:06:20;;;;;;;3.55;1.05;;;4.40;63.40;;;;;;5002302;28;20030;-69